Het weer levert geen direct gevaar op.    Er zijn geen waarschuwingen afgegeven.

Onweer radar more information blitzortung!


Regen radar more information rain snow radar


Meteo Sauwerd

Weerstation Alkmaar Centrum

Weerstation Luyksgestel

Website Noardburgum

Weerstation Noordbergum



METAR rapporten vliegvelden

   
EHLW - Leeuwarden Rnlaf, Netherlands
Afstand tot: W 17 km
Gewijzigd: 17-10-2018 19:55
Bewolking  
Bewolking  
   Wind: varieert 4 km/h
Wind: varieert 4 km/h
Temperatuur: 11°C
Dauwpunt: 11°C
Vochtigheid: 100%
Barometer: 1020 hPa
Bewolking: Bewolking
Zicht: meer dan 10 km
Bewolking: Bewolking 25000 ft
EHLW 171755Z AUTO VRB02KT 9999 OVC250 11/11 Q1020 BLU
EHMA - Awg-1 Sea, Netherlands
Afstand tot: N 31 km
Gewijzigd: 17-10-2018 19:55
Helder  
Helder  
   Wind: WNW 15 km/h
Wind: WNW 15 km/h
Temperatuur: 15°C
Dauwpunt: 11°C
Vochtigheid: 77%
Barometer: 1020 hPa
Bewolking: Helder
Zicht: meer dan 10 km
Bewolking: Helder
EHMA 171755Z AUTO 29008KT 9999 NCD 15/11 Q1020 W///H///
EHGG - Groningen/Eelde, Netherlands
Afstand tot: OZO 40 km
Gewijzigd: 17-10-2018 19:55
Bewolking  
Bewolking  
   Wind: NW 11 km/h
Wind: NW 11 km/h
Temperatuur: 15°C
Dauwpunt: 12°C
Vochtigheid: 82%
Barometer: 1020 hPa
Bewolking: Bewolking
Zicht: meer dan 10 km
Bewolking: Bewolking 3300 ft
EHGG 171755Z AUTO 32006KT 9999 OVC033 15/12 Q1020 NOSIG
EHVL - Vlieland Island, Netherlands
Afstand tot: W 72 km
Gewijzigd: 17-10-2018 19:55
Bewolking  
Bewolking  
   Wind: WNW 9 km/h
Wind: WNW 9 km/h
Temperatuur: 15°C
Dauwpunt: 12°C
Vochtigheid: 82%
Barometer: 1020 hPa
Bewolking: Bewolking
Zicht: meer dan 10 km
Bewolking: Bewolking 1600 ft
EHVL 171755Z AUTO 29005KT 9999 OVC016 15/12 Q1020 WHT
EHMG - L9-Ff-1 Sea, Netherlands
Afstand tot: WNW 81 km
Gewijzigd: 17-10-2018 19:55
Helder  
Helder  
   Wind: varieert 17 km/h
Wind: varieert 17 km/h
Temperatuur: 14°C
Dauwpunt: 13°C
Vochtigheid: 94%
Barometer: 1020 hPa
Bewolking: Helder
Zicht: meer dan 10 km
Bewolking: Helder
EHMG 171755Z AUTO VRB09KT 9999 NCD 14/13 Q1020 W///H///
EHKD - De Kooy (navy), Netherlands
Afstand tot: WZW 89 km
Gewijzigd: 17-10-2018 19:55
Bewolking  
Bewolking  
   Wind: NW 6 km/h
Wind: NW 6 km/h
Temperatuur: 13°C
Dauwpunt: 11°C
Vochtigheid: 88%
Barometer: 1020 hPa
Bewolking: Bewolking
Zicht: meer dan 10 km
Bewolking: Bewolking 26000 ft
EHKD 171755Z AUTO 31003KT 9999 OVC260 13/11 Q1020 BLU 31005KT 9999 FEW020 SCT250

Script ontwikkeld door  Saratoga-weather.org Aangepast voor de template door  Weerstation Leuven

U vindt ons ook hier:

Het Weer Aktueel

UK Metoffice

European Weather Network

Weather Underground

AWEKAS

Citizen Weather Observer Program (CWOP)

HAMweather, WeatherForYou, PWS Weather

Apparatuur in gebruik:

Weerstation
Davis Vantage pro 2

Weerprogramma
Meteobridge

Weercomputer
TP-Link TL-WR703N

Webleverancier
Versio

Davis Vantage pro 2

Meteobridge

TP-Link TL-WR703N

Versio